createdAt,value
2018-05-07T00:00:36.409Z,14.44
2018-05-07T00:03:04.840Z,14.50
2018-05-07T00:05:33.267Z,14.52
2018-05-07T00:08:01.782Z,14.51
2018-05-07T00:10:30.212Z,14.50
2018-05-07T00:12:58.632Z,14.47
2018-05-07T00:15:27.096Z,14.45
2018-05-07T00:17:55.508Z,14.38
2018-05-07T00:20:23.936Z,14.39
2018-05-07T00:22:52.396Z,14.33
2018-05-07T00:25:20.804Z,14.30
2018-05-07T00:27:49.231Z,14.26
2018-05-07T00:30:17.686Z,14.18
2018-05-07T00:32:46.105Z,14.19
2018-05-07T00:35:14.519Z,14.15
2018-05-07T00:37:42.985Z,14.17
2018-05-07T00:40:11.424Z,14.14
2018-05-07T00:42:39.861Z,14.09
2018-05-07T00:45:08.324Z,14.05
2018-05-07T00:47:36.760Z,14.03
2018-05-07T00:50:05.184Z,13.96
2018-05-07T00:52:33.676Z,13.93
2018-05-07T00:55:13.997Z,13.87
2018-05-07T00:57:42.452Z,13.88
2018-05-07T01:00:10.876Z,13.85
2018-05-07T01:02:39.289Z,13.80
2018-05-07T01:05:07.794Z,13.81
2018-05-07T01:07:36.220Z,13.78
2018-05-07T01:10:04.669Z,13.74
2018-05-07T01:12:33.148Z,13.63
2018-05-07T01:15:01.557Z,13.56
2018-05-07T01:17:29.972Z,13.52
2018-05-07T01:19:58.462Z,13.43
2018-05-07T01:22:26.897Z,13.44
2018-05-07T01:24:55.309Z,13.47
2018-05-07T01:27:23.797Z,13.44
2018-05-07T01:29:52.236Z,13.45
2018-05-07T01:32:20.652Z,13.41
2018-05-07T01:34:49.130Z,13.37
2018-05-07T01:37:17.555Z,13.33
2018-05-07T01:40:00.592Z,13.28
2018-05-07T01:42:29.040Z,13.23
2018-05-07T01:44:57.465Z,13.19
2018-05-07T01:47:25.948Z,13.11
2018-05-07T01:49:54.381Z,13.05
2018-05-07T01:52:22.814Z,12.98
2018-05-07T01:54:51.324Z,12.90
2018-05-07T01:57:19.748Z,12.90
2018-05-07T01:59:48.164Z,12.95
2018-05-07T02:02:16.654Z,12.89
2018-05-07T02:04:45.087Z,12.84
2018-05-07T02:07:13.505Z,12.83
2018-05-07T02:09:41.976Z,12.86
2018-05-07T02:12:10.387Z,12.89
2018-05-07T02:14:38.803Z,12.86
2018-05-07T02:17:07.270Z,12.86
2018-05-07T02:19:35.687Z,12.84
2018-05-07T02:22:04.143Z,12.77
2018-05-07T02:24:32.591Z,12.73
2018-05-07T02:27:01.021Z,12.73
2018-05-07T02:29:29.452Z,12.67
2018-05-07T02:31:57.908Z,12.68
2018-05-07T02:34:26.361Z,12.65
2018-05-07T02:36:54.789Z,12.62
2018-05-07T02:39:23.260Z,12.58
2018-05-07T02:41:51.688Z,12.55
2018-05-07T02:44:20.134Z,12.50
2018-05-07T02:46:48.604Z,12.49
2018-05-07T02:49:17.037Z,12.45
2018-05-07T02:51:45.459Z,12.37
2018-05-07T02:54:13.921Z,12.38
2018-05-07T02:56:42.354Z,12.30
2018-05-07T02:59:10.785Z,12.31
2018-05-07T03:01:39.256Z,12.35
2018-05-07T03:04:07.669Z,12.37
2018-05-07T03:06:36.092Z,12.38
2018-05-07T03:09:04.589Z,12.35
2018-05-07T03:11:33.009Z,12.32
2018-05-07T03:14:01.437Z,12.27
2018-05-07T03:16:30.160Z,12.25
2018-05-07T03:18:58.577Z,12.26
2018-05-07T03:21:27.000Z,12.19
2018-05-07T03:23:55.486Z,12.19
2018-05-07T03:26:23.913Z,12.16
2018-05-07T03:28:52.328Z,12.12
2018-05-07T03:31:20.789Z,12.13
2018-05-07T03:33:49.204Z,12.14
2018-05-07T03:36:17.625Z,12.10
2018-05-07T03:38:46.120Z,12.03
2018-05-07T03:41:14.547Z,11.99
2018-05-07T03:43:42.980Z,11.89
2018-05-07T03:46:11.451Z,11.86
2018-05-07T03:48:39.904Z,11.79
2018-05-07T03:51:08.337Z,11.68
2018-05-07T03:53:36.804Z,11.66
2018-05-07T03:56:05.250Z,11.56
2018-05-07T03:58:33.680Z,11.49
2018-05-07T04:01:02.204Z,11.44
2018-05-07T04:03:30.656Z,11.37
2018-05-07T04:05:59.090Z,11.34
2018-05-07T04:08:27.539Z,11.32
2018-05-07T04:10:55.954Z,11.32
2018-05-07T04:13:24.380Z,11.30
2018-05-07T04:15:52.860Z,11.28
2018-05-07T04:21:27.136Z,11.37
2018-05-07T04:24:05.476Z,11.41
2018-05-07T04:26:33.927Z,11.48
2018-05-07T04:29:02.364Z,11.57
2018-05-07T04:31:30.781Z,11.68
2018-05-07T04:33:59.241Z,11.75
2018-05-07T04:36:27.682Z,11.85
2018-05-07T04:38:56.116Z,11.87
2018-05-07T04:41:24.576Z,11.93
2018-05-07T04:43:53.000Z,12.00
2018-05-07T04:46:21.413Z,12.03
2018-05-07T04:48:49.876Z,12.12
2018-05-07T04:51:18.299Z,12.12
2018-05-07T04:53:47.000Z,12.22
2018-05-07T04:56:15.465Z,12.31
2018-05-07T04:58:43.927Z,12.36
2018-05-07T05:01:12.397Z,12.37
2018-05-07T05:03:40.864Z,12.37
2018-05-07T05:06:09.284Z,12.44
2018-05-07T05:08:37.698Z,12.42
2018-05-07T05:11:06.149Z,12.46
2018-05-07T05:13:34.565Z,12.54
2018-05-07T05:16:02.988Z,12.62
2018-05-07T05:18:31.466Z,12.70
2018-05-07T05:20:59.890Z,12.76
2018-05-07T05:23:28.311Z,12.84
2018-05-07T05:25:56.792Z,12.87
2018-05-07T05:28:25.206Z,12.93
2018-05-07T05:30:53.641Z,13.03
2018-05-07T05:33:22.104Z,13.15
2018-05-07T05:35:50.525Z,13.27
2018-05-07T05:38:18.957Z,13.32
2018-05-07T05:40:47.436Z,13.44
2018-05-07T05:43:15.848Z,13.51
2018-05-07T05:45:44.261Z,13.64
2018-05-07T05:48:12.744Z,13.73
2018-05-07T05:50:41.166Z,13.79
2018-05-07T05:53:09.586Z,13.94
2018-05-07T05:55:38.071Z,14.05
2018-05-07T05:58:06.494Z,14.17
2018-05-07T06:00:34.920Z,14.24
2018-05-07T06:03:03.402Z,14.35
2018-05-07T06:05:31.861Z,14.46
2018-05-07T06:08:00.292Z,14.57
2018-05-07T06:10:28.796Z,14.68
2018-05-07T06:12:57.227Z,14.81
2018-05-07T06:15:25.657Z,14.86
2018-05-07T06:17:54.115Z,15.01
2018-05-07T06:20:22.534Z,15.04
2018-05-07T06:22:50.969Z,15.17
2018-05-07T06:25:19.453Z,15.23
2018-05-07T06:27:47.868Z,15.25
2018-05-07T06:30:16.291Z,15.35
2018-05-07T06:32:44.774Z,15.40
2018-05-07T06:35:13.188Z,15.50
2018-05-07T06:37:41.604Z,15.59
2018-05-07T06:40:10.091Z,15.60
2018-05-07T06:42:38.552Z,15.69
2018-05-07T06:45:07.020Z,15.79
2018-05-07T06:47:51.484Z,15.86
2018-05-07T06:50:19.915Z,15.99
2018-05-07T06:52:48.329Z,16.17
2018-05-07T06:55:16.791Z,16.23
2018-05-07T06:57:45.208Z,16.27
2018-05-07T07:00:13.674Z,16.49
2018-05-07T07:02:42.263Z,16.68
2018-05-07T07:05:10.608Z,16.82
2018-05-07T07:07:39.029Z,16.90
2018-05-07T07:10:07.506Z,17.11
2018-05-07T07:12:35.926Z,17.17
2018-05-07T07:15:04.393Z,17.26
2018-05-07T07:17:32.859Z,17.39
2018-05-07T07:20:01.278Z,17.50
2018-05-07T07:22:29.693Z,17.68
2018-05-07T07:24:58.187Z,17.84
2018-05-07T07:27:26.605Z,17.92
2018-05-07T07:29:55.025Z,18.04
2018-05-07T07:32:23.504Z,18.19
2018-05-07T07:34:51.920Z,18.30
2018-05-07T07:37:20.337Z,18.46
2018-05-07T07:39:48.788Z,18.44
2018-05-07T07:42:17.257Z,18.51
2018-05-07T07:44:45.671Z,18.51
2018-05-07T07:47:14.193Z,18.56
2018-05-07T07:49:42.600Z,18.65
2018-05-07T07:52:11.017Z,18.67
2018-05-07T07:54:39.473Z,18.74
2018-05-07T07:57:07.904Z,18.87
2018-05-07T07:59:36.325Z,18.95
2018-05-07T08:02:04.826Z,18.97
2018-05-07T08:04:33.258Z,19.06
2018-05-07T08:07:01.681Z,19.24
2018-05-07T08:09:30.164Z,19.38
2018-05-07T08:11:58.681Z,19.52
2018-05-07T08:14:27.061Z,19.59
2018-05-07T08:16:55.560Z,19.68
2018-05-07T08:19:23.976Z,19.79
2018-05-07T08:21:52.400Z,19.89
2018-05-07T08:24:20.876Z,20.04
2018-05-07T08:26:49.316Z,20.24
2018-05-07T08:29:17.768Z,20.25
2018-05-07T08:31:46.244Z,20.35
2018-05-07T08:34:14.685Z,20.38
2018-05-07T08:36:43.171Z,20.44
2018-05-07T08:39:11.588Z,20.47
2018-05-07T08:41:40.413Z,20.51
2018-05-07T08:44:08.832Z,20.51
2018-05-07T08:46:37.310Z,20.50
2018-05-07T08:49:05.741Z,20.59
2018-05-07T08:51:34.159Z,20.68
2018-05-07T08:54:02.630Z,20.76
2018-05-07T08:56:31.075Z,20.84
2018-05-07T08:58:59.510Z,20.86
2018-05-07T09:01:27.978Z,20.96
2018-05-07T09:03:56.397Z,21.00
2018-05-07T09:06:24.852Z,21.21
2018-05-07T09:08:53.318Z,21.40
2018-05-07T09:11:21.756Z,21.35
2018-05-07T09:13:50.172Z,21.50
2018-05-07T09:16:18.624Z,21.60
2018-05-07T09:18:47.069Z,21.55
2018-05-07T09:21:15.485Z,21.47
2018-05-07T09:23:43.988Z,21.57
2018-05-07T09:26:12.428Z,21.48
2018-05-07T09:28:40.855Z,21.42
2018-05-07T09:31:09.307Z,21.51
2018-05-07T09:33:37.735Z,21.67
2018-05-07T09:36:06.153Z,21.73
2018-05-07T09:38:34.612Z,21.72
2018-05-07T09:41:03.038Z,21.62
2018-05-07T09:43:31.464Z,21.77
2018-05-07T09:46:00.057Z,21.96
2018-05-07T09:48:28.484Z,22.07
2018-05-07T09:50:56.904Z,22.22
2018-05-07T09:53:25.370Z,22.10
2018-05-07T09:55:53.785Z,22.10
2018-05-07T09:58:22.205Z,22.18
2018-05-07T10:00:50.683Z,22.24
2018-05-07T10:03:19.112Z,22.40
2018-05-07T10:05:47.533Z,22.43
2018-05-07T10:08:15.991Z,22.58
2018-05-07T10:10:44.453Z,22.56
2018-05-07T10:13:12.868Z,22.58
2018-05-07T10:15:41.321Z,22.66
2018-05-07T10:18:09.741Z,22.59
2018-05-07T10:20:38.152Z,22.59
2018-05-07T10:23:06.612Z,22.68
2018-05-07T10:25:35.031Z,22.92
2018-05-07T10:28:03.461Z,22.91
2018-05-07T10:30:31.912Z,22.95
2018-05-07T10:33:00.336Z,22.95
2018-05-07T10:35:28.764Z,22.93
2018-05-07T10:37:57.229Z,22.93
2018-05-07T10:40:25.639Z,23.01
2018-05-07T10:42:54.057Z,23.08
2018-05-07T10:45:22.604Z,23.09
2018-05-07T10:47:50.980Z,23.23
2018-05-07T10:50:19.413Z,23.39
2018-05-07T10:52:47.906Z,23.55
2018-05-07T10:55:16.340Z,23.64
2018-05-07T10:57:44.760Z,23.62
2018-05-07T11:00:13.239Z,23.55
2018-05-07T11:02:41.649Z,23.60
2018-05-07T11:05:10.063Z,23.67
2018-05-07T11:07:38.523Z,23.69
2018-05-07T11:10:06.956Z,23.72
2018-05-07T11:12:35.367Z,23.77
2018-05-07T11:15:03.864Z,23.92
2018-05-07T11:17:32.296Z,24.02
2018-05-07T11:20:00.727Z,24.07
2018-05-07T11:22:29.203Z,24.08
2018-05-07T11:24:57.607Z,24.21
2018-05-07T11:27:26.014Z,24.22
2018-05-07T11:29:54.504Z,24.27
2018-05-07T11:32:22.944Z,24.36
2018-05-07T11:34:51.372Z,24.36
2018-05-07T11:37:19.837Z,24.46
2018-05-07T11:39:48.261Z,24.41
2018-05-07T11:42:16.669Z,24.41
2018-05-07T11:44:45.124Z,24.59
2018-05-07T11:47:13.555Z,24.83
2018-05-07T11:49:41.972Z,24.94
2018-05-07T11:52:10.441Z,24.91
2018-05-07T11:54:38.864Z,24.86
2018-05-07T11:57:07.293Z,24.96
2018-05-07T11:59:35.777Z,24.91
2018-05-07T12:02:04.195Z,24.86
2018-05-07T12:04:32.611Z,25.05
2018-05-07T12:07:01.105Z,25.35
2018-05-07T12:09:29.532Z,25.31
2018-05-07T12:11:57.970Z,25.24
2018-05-07T12:14:26.440Z,25.24
2018-05-07T12:16:54.856Z,25.24
2018-05-07T12:19:23.272Z,25.36
2018-05-07T12:21:51.770Z,25.47
2018-05-07T12:24:20.196Z,25.19
2018-05-07T12:26:48.629Z,25.20
2018-05-07T12:29:17.084Z,25.38
2018-05-07T12:31:45.588Z,25.43
2018-05-07T12:34:13.982Z,25.49
2018-05-07T12:36:42.499Z,25.46
2018-05-07T12:39:10.922Z,25.68
2018-05-07T12:41:39.352Z,25.70
2018-05-07T12:44:07.816Z,25.76
2018-05-07T12:46:36.244Z,25.73
2018-05-07T12:49:04.672Z,25.70
2018-05-07T12:51:33.140Z,25.46
2018-05-07T12:54:01.555Z,25.21
2018-05-07T12:56:29.982Z,25.05
2018-05-07T12:58:58.486Z,25.15
2018-05-07T13:01:27.149Z,25.27
2018-05-07T13:03:55.568Z,25.25
2018-05-07T13:06:24.033Z,25.32
2018-05-07T13:08:52.457Z,25.14
2018-05-07T13:11:20.899Z,25.34
2018-05-07T13:13:49.372Z,25.34
2018-05-07T13:16:17.783Z,25.38
2018-05-07T13:18:46.208Z,25.70
2018-05-07T13:21:14.694Z,25.78
2018-05-07T13:23:43.148Z,25.81
2018-05-07T13:26:11.563Z,25.66
2018-05-07T13:28:40.016Z,25.72
2018-05-07T13:31:08.445Z,25.67
2018-05-07T13:33:36.865Z,25.49
2018-05-07T13:36:05.396Z,25.49
2018-05-07T13:38:33.843Z,25.62
2018-05-07T13:41:02.264Z,25.71
2018-05-07T13:43:30.741Z,25.98
2018-05-07T13:45:59.182Z,26.15
2018-05-07T13:48:27.603Z,26.09
2018-05-07T13:50:56.069Z,25.84
2018-05-07T13:53:24.484Z,25.90
2018-05-07T13:55:52.927Z,25.85
2018-05-07T13:58:21.408Z,25.64
2018-05-07T14:00:49.835Z,25.59
2018-05-07T14:03:18.601Z,25.66
2018-05-07T14:05:47.076Z,25.63
2018-05-07T14:08:15.517Z,25.64
2018-05-07T14:10:43.932Z,25.69
2018-05-07T14:13:12.401Z,25.54
2018-05-07T14:15:41.012Z,25.56
2018-05-07T14:18:09.428Z,25.50
2018-05-07T14:20:37.912Z,25.45
2018-05-07T14:23:06.332Z,25.53
2018-05-07T14:25:34.757Z,25.51
2018-05-07T14:28:03.247Z,25.62
2018-05-07T14:30:31.660Z,25.33
2018-05-07T14:33:00.080Z,25.16
2018-05-07T14:35:28.549Z,25.00
2018-05-07T14:37:56.977Z,24.87
2018-05-07T14:40:25.400Z,24.61
2018-05-07T14:42:53.881Z,24.25
2018-05-07T14:45:22.341Z,24.19
2018-05-07T14:47:50.765Z,24.05
2018-05-07T14:50:19.243Z,24.06
2018-05-07T14:52:47.727Z,24.05
2018-05-07T14:55:16.169Z,23.99
2018-05-07T14:57:44.636Z,23.83
2018-05-07T15:00:13.079Z,23.78
2018-05-07T15:02:41.512Z,23.73
2018-05-07T15:05:10.011Z,23.70
2018-05-07T15:07:38.433Z,23.59
2018-05-07T15:10:06.857Z,23.59
2018-05-07T15:12:35.332Z,23.57
2018-05-07T15:15:03.812Z,23.58
2018-05-07T15:17:32.247Z,23.57
2018-05-07T15:20:00.705Z,23.59
2018-05-07T15:22:29.141Z,23.58
2018-05-07T15:24:57.572Z,23.60
2018-05-07T15:27:26.020Z,23.69
2018-05-07T15:29:54.465Z,23.72
2018-05-07T15:32:22.888Z,23.63
2018-05-07T15:34:51.354Z,23.57
2018-05-07T15:37:19.781Z,23.57
2018-05-07T15:39:48.192Z,23.54
2018-05-07T15:42:16.653Z,23.48
2018-05-07T15:44:45.064Z,23.44
2018-05-07T15:47:13.500Z,23.39
2018-05-07T15:49:41.953Z,23.32
2018-05-07T15:52:10.366Z,23.29
2018-05-07T15:54:38.830Z,23.26
2018-05-07T15:57:07.322Z,23.28
2018-05-07T15:59:35.742Z,23.28
2018-05-07T16:02:04.665Z,23.30
2018-05-07T16:04:33.135Z,23.33
2018-05-07T16:07:01.706Z,23.32
2018-05-07T16:09:30.117Z,23.33
2018-05-07T16:11:58.602Z,23.33
2018-05-07T16:14:27.024Z,23.31
2018-05-07T16:16:55.470Z,23.31
2018-05-07T16:19:23.925Z,23.29
2018-05-07T16:21:52.386Z,23.31
2018-05-07T16:24:20.799Z,23.27
2018-05-07T16:26:49.280Z,23.23
2018-05-07T16:29:17.692Z,23.20
2018-05-07T16:31:46.127Z,23.15
2018-05-07T16:34:14.580Z,23.14
2018-05-07T16:36:43.024Z,23.13
2018-05-07T16:39:11.435Z,23.08
2018-05-07T16:41:39.915Z,23.03
2018-05-07T16:44:08.325Z,23.02
2018-05-07T16:46:36.752Z,23.02
2018-05-07T16:49:05.299Z,22.97
2018-05-07T16:51:33.716Z,22.94
2018-05-07T16:54:02.141Z,22.93
2018-05-07T16:56:30.606Z,22.89
2018-05-07T16:58:59.032Z,22.95
2018-05-07T17:01:27.457Z,22.93
2018-05-07T17:03:55.913Z,22.90
2018-05-07T17:06:24.330Z,22.88
2018-05-07T17:08:52.746Z,22.82
2018-05-07T17:11:21.205Z,22.80
2018-05-07T17:13:49.625Z,22.75
2018-05-07T17:16:18.053Z,22.72
2018-05-07T17:18:46.525Z,22.70
2018-05-07T17:21:14.949Z,22.68
2018-05-07T17:23:43.368Z,22.61
2018-05-07T17:26:11.837Z,22.56
2018-05-07T17:28:40.280Z,22.52
2018-05-07T17:31:08.692Z,22.49
2018-05-07T17:33:37.194Z,22.45
2018-05-07T17:36:05.625Z,22.44
2018-05-07T17:38:34.045Z,22.39
2018-05-07T17:41:02.512Z,22.37
2018-05-07T17:43:30.932Z,22.37
2018-05-07T17:46:11.382Z,22.34
2018-05-07T17:48:51.416Z,22.26
2018-05-07T17:51:19.873Z,22.15
2018-05-07T17:53:48.297Z,22.08
2018-05-07T17:56:16.716Z,22.02
2018-05-07T17:58:45.213Z,21.98
2018-05-07T18:01:13.640Z,21.91
2018-05-07T18:03:42.073Z,21.84
2018-05-07T18:06:10.590Z,21.87
2018-05-07T18:08:39.022Z,21.81
2018-05-07T18:11:07.476Z,21.78
2018-05-07T18:13:35.947Z,21.77
2018-05-07T18:16:04.380Z,21.71
2018-05-07T18:18:32.793Z,21.69
2018-05-07T18:21:01.270Z,21.59
2018-05-07T18:23:29.693Z,21.60
2018-05-07T18:25:58.105Z,21.53
2018-05-07T18:28:26.564Z,21.53
2018-05-07T18:30:55.000Z,21.46
2018-05-07T18:33:23.430Z,21.48
2018-05-07T18:35:52.244Z,21.44
2018-05-07T18:38:20.764Z,21.41
2018-05-07T18:40:49.289Z,21.38
2018-05-07T18:43:17.796Z,21.38
2018-05-07T18:45:46.274Z,21.35
2018-05-07T18:48:14.722Z,21.30
2018-05-07T18:50:43.273Z,21.24
2018-05-07T18:53:11.755Z,21.21
2018-05-07T18:55:40.192Z,21.07
2018-05-07T18:58:08.659Z,20.86
2018-05-07T19:00:37.183Z,20.74
2018-05-07T19:03:05.683Z,20.67
2018-05-07T19:05:34.148Z,20.50
2018-05-07T19:08:02.590Z,20.45
2018-05-07T19:10:31.009Z,20.35
2018-05-07T19:12:59.476Z,20.26
2018-05-07T19:15:27.904Z,20.20
2018-05-07T19:17:56.335Z,20.03
2018-05-07T19:20:24.838Z,20.08
2018-05-07T19:22:53.260Z,20.18
2018-05-07T19:25:21.694Z,20.11
2018-05-07T19:27:50.165Z,20.07
2018-05-07T19:30:18.589Z,19.98
2018-05-07T19:32:47.005Z,19.97
2018-05-07T19:35:15.461Z,19.84
2018-05-07T19:37:43.900Z,19.75
2018-05-07T19:40:12.329Z,19.66
2018-05-07T19:42:40.779Z,19.59
2018-05-07T19:45:09.204Z,19.56
2018-05-07T19:47:37.616Z,19.47
2018-05-07T19:50:06.082Z,19.41
2018-05-07T19:52:34.496Z,19.34
2018-05-07T19:55:02.914Z,19.25
2018-05-07T19:57:31.380Z,19.16
2018-05-07T19:59:59.788Z,19.10
2018-05-07T20:02:28.210Z,19.04
2018-05-07T20:04:56.673Z,19.00
2018-05-07T20:07:25.099Z,19.10
2018-05-07T20:09:53.524Z,18.93
2018-05-07T20:12:22.051Z,18.92
2018-05-07T20:14:50.445Z,18.87
2018-05-07T20:17:18.865Z,18.87
2018-05-07T20:19:47.330Z,18.79
2018-05-07T20:22:15.853Z,18.52
2018-05-07T20:24:44.285Z,18.28
2018-05-07T20:27:12.750Z,18.39
2018-05-07T20:29:42.013Z,18.35
2018-05-07T20:32:10.435Z,18.45
2018-05-07T20:34:38.905Z,18.42
2018-05-07T20:37:07.397Z,18.32
2018-05-07T20:39:35.833Z,18.27
2018-05-07T20:42:04.331Z,18.20
2018-05-07T20:44:32.762Z,18.06
2018-05-07T20:47:01.207Z,18.01
2018-05-07T20:49:29.678Z,17.89
2018-05-07T20:51:58.114Z,17.79
2018-05-07T20:54:26.585Z,17.72
2018-05-07T20:56:55.053Z,17.58
2018-05-07T20:59:23.553Z,17.53
2018-05-07T21:01:51.956Z,17.43
2018-05-07T21:04:20.420Z,17.38
2018-05-07T21:06:48.849Z,17.34
2018-05-07T21:09:17.274Z,17.30
2018-05-07T21:11:45.740Z,17.25
2018-05-07T21:14:14.161Z,17.19
2018-05-07T21:16:42.594Z,17.09
2018-05-07T21:19:11.079Z,17.07
2018-05-07T21:21:39.493Z,17.00
2018-05-07T21:24:07.901Z,16.99
2018-05-07T21:26:36.381Z,16.99
2018-05-07T21:29:04.800Z,16.91
2018-05-07T21:31:33.224Z,16.83
2018-05-07T21:34:01.706Z,16.82
2018-05-07T21:36:30.120Z,16.71
2018-05-07T21:38:58.535Z,16.64
2018-05-07T21:41:27.024Z,16.43
2018-05-07T21:43:55.445Z,16.41
2018-05-07T21:46:23.874Z,16.46
2018-05-07T21:48:52.335Z,16.45
2018-05-07T21:51:20.760Z,16.52
2018-05-07T21:53:49.177Z,16.50
2018-05-07T21:56:17.652Z,16.48
2018-05-07T21:58:46.065Z,16.48
2018-05-07T22:01:14.492Z,16.34
2018-05-07T22:03:43.014Z,16.30
2018-05-07T22:06:11.440Z,16.29
2018-05-07T22:08:39.874Z,16.08
2018-05-07T22:11:08.341Z,16.10
2018-05-07T22:13:36.760Z,16.13
2018-05-07T22:16:05.192Z,16.11
2018-05-07T22:18:33.840Z,16.11
2018-05-07T22:21:02.266Z,16.07
2018-05-07T22:23:30.677Z,15.98
2018-05-07T22:25:59.152Z,15.82
2018-05-07T22:28:27.575Z,15.81
2018-05-07T22:30:55.990Z,15.64
2018-05-07T22:33:24.464Z,15.65
2018-05-07T22:35:52.886Z,15.67
2018-05-07T22:38:21.315Z,15.67
2018-05-07T22:40:49.777Z,15.60
2018-05-07T22:43:18.211Z,15.53
2018-05-07T22:45:46.636Z,15.39
2018-05-07T22:48:15.107Z,15.29
2018-05-07T22:50:43.524Z,15.13
2018-05-07T22:53:11.976Z,15.16
2018-05-07T22:55:40.457Z,15.26
2018-05-07T22:58:08.882Z,15.18
2018-05-07T23:00:37.343Z,15.20
2018-05-07T23:03:05.813Z,15.20
2018-05-07T23:05:34.232Z,15.19
2018-05-07T23:08:02.687Z,15.12
2018-05-07T23:10:31.164Z,15.09
2018-05-07T23:12:59.584Z,15.06
2018-05-07T23:15:28.015Z,15.06
2018-05-07T23:17:56.481Z,15.01
2018-05-07T23:20:24.912Z,15.03
2018-05-07T23:22:53.336Z,15.00
2018-05-07T23:25:21.849Z,15.01
2018-05-07T23:27:50.268Z,15.02
2018-05-07T23:30:18.692Z,15.02
2018-05-07T23:32:47.176Z,14.98
2018-05-07T23:35:15.595Z,14.94
2018-05-07T23:37:44.025Z,14.84
2018-05-07T23:40:12.492Z,14.86
2018-05-07T23:42:40.920Z,14.88
2018-05-07T23:45:09.343Z,14.85
2018-05-07T23:47:37.831Z,14.77
2018-05-07T23:50:06.251Z,14.77
2018-05-07T23:52:34.675Z,14.78
2018-05-07T23:55:03.245Z,14.76
2018-05-07T23:57:31.669Z,14.79
